createdAt,value
2023-05-03T00:04:33.298Z,5.13
2023-05-03T00:10:36.698Z,4.85
2023-05-03T00:16:40.417Z,5.80
2023-05-03T00:22:45.299Z,5.22
2023-05-03T00:28:48.737Z,5.50
2023-05-03T00:34:54.973Z,5.85
2023-05-03T00:40:59.880Z,5.95
2023-05-03T00:47:03.484Z,5.72
2023-05-03T00:53:07.354Z,5.32
2023-05-03T00:59:16.672Z,6.30
2023-05-03T01:05:20.096Z,5.90
2023-05-03T01:11:26.062Z,5.95
2023-05-03T01:17:31.979Z,6.18
2023-05-03T01:23:39.388Z,6.82
2023-05-03T01:29:44.908Z,7.07
2023-05-03T01:35:52.490Z,7.25
2023-05-03T01:41:55.977Z,7.40
2023-05-03T01:48:01.211Z,7.65
2023-05-03T01:54:04.709Z,7.78
2023-05-03T02:00:09.901Z,7.45
2023-05-03T02:06:14.724Z,6.93
2023-05-03T02:12:18.215Z,7.32
2023-05-03T02:18:22.379Z,7.10
2023-05-03T02:24:27.307Z,5.88
2023-05-03T02:30:31.259Z,6.32
2023-05-03T02:36:34.759Z,7.13
2023-05-03T02:42:39.550Z,6.45
2023-05-03T02:48:42.960Z,6.65
2023-05-03T02:54:47.155Z,6.60
2023-05-03T03:00:52.649Z,7.22
2023-05-03T03:06:56.924Z,7.05
2023-05-03T03:13:00.371Z,6.15
2023-05-03T03:19:05.177Z,6.25
2023-05-03T03:25:09.659Z,6.20
2023-05-03T03:31:13.060Z,6.22
2023-05-03T03:37:18.051Z,5.82
2023-05-03T03:43:21.609Z,5.50
2023-05-03T03:49:25.415Z,5.82
2023-05-03T03:55:30.205Z,5.50
2023-05-03T04:01:33.705Z,6.18
2023-05-03T04:07:37.136Z,6.05
2023-05-03T04:13:43.325Z,6.82
2023-05-03T04:19:47.298Z,6.38
2023-05-03T04:25:50.782Z,5.75
2023-05-03T04:31:55.785Z,6.63
2023-05-03T04:37:59.182Z,5.65
2023-05-03T04:44:02.715Z,5.90
2023-05-03T04:50:11.556Z,5.45
2023-05-03T04:56:15.028Z,5.47
2023-05-03T05:02:18.641Z,5.22
2023-05-03T05:08:23.461Z,5.78
2023-05-03T05:14:28.539Z,6.13
2023-05-03T05:20:31.990Z,5.68
2023-05-03T05:26:36.774Z,6.50
2023-05-03T05:32:40.202Z,5.20
2023-05-03T05:38:43.719Z,4.95
2023-05-03T05:44:48.784Z,5.32
2023-05-03T05:50:52.168Z,5.05
2023-05-03T05:56:55.618Z,5.55
2023-05-03T06:03:00.406Z,5.00
2023-05-03T06:09:13.258Z,4.50
2023-05-03T06:15:26.912Z,4.93
2023-05-03T06:21:31.795Z,4.72
2023-05-03T06:27:35.342Z,5.75
2023-05-03T06:33:38.804Z,4.68
2023-05-03T06:39:43.609Z,4.60
2023-05-03T06:45:47.505Z,4.53
2023-05-03T06:51:50.901Z,4.65
2023-05-03T06:57:55.824Z,5.40
2023-05-03T07:03:59.697Z,5.88
2023-05-03T07:10:03.786Z,4.88
2023-05-03T07:16:09.616Z,4.97
2023-05-03T07:22:13.757Z,5.07
2023-05-03T07:28:18.344Z,5.43
2023-05-03T07:34:23.152Z,5.40
2023-05-03T07:40:28.813Z,5.80
2023-05-03T07:46:35.700Z,6.05
2023-05-03T07:52:42.398Z,5.88
2023-05-03T07:58:48.658Z,5.97
2023-05-03T08:04:55.429Z,6.45
2023-05-03T08:11:00.366Z,8.70
2023-05-03T08:17:04.814Z,6.97
2023-05-03T08:23:08.259Z,7.10
2023-05-03T08:29:12.994Z,8.70
2023-05-03T08:35:16.835Z,9.18
2023-05-03T08:41:26.200Z,8.23
2023-05-03T08:47:36.004Z,8.05
2023-05-03T08:53:39.536Z,7.57
2023-05-03T08:59:49.823Z,8.10
2023-05-03T09:05:54.599Z,8.07
2023-05-03T09:11:58.301Z,9.05
2023-05-03T09:18:11.930Z,10.67
2023-05-03T09:24:17.853Z,9.10
2023-05-03T09:30:21.618Z,10.07
2023-05-03T09:36:25.639Z,10.63
2023-05-03T09:42:30.810Z,8.48
2023-05-03T09:48:34.197Z,8.50
2023-05-03T09:54:37.688Z,7.85
2023-05-03T10:00:44.083Z,7.97
2023-05-03T10:06:48.463Z,8.18
2023-05-03T10:12:53.948Z,8.23
2023-05-03T10:19:03.222Z,7.82
2023-05-03T10:25:10.638Z,7.32
2023-05-03T10:31:29.025Z,10.07
2023-05-03T10:37:35.018Z,7.95
2023-05-03T10:43:48.024Z,8.77
2023-05-03T10:50:06.254Z,10.30
2023-05-03T10:56:11.873Z,8.60
2023-05-03T11:02:18.971Z,7.95
2023-05-03T11:08:23.126Z,10.77
2023-05-03T11:14:28.235Z,8.88
2023-05-03T11:20:33.021Z,8.60
2023-05-03T11:26:39.439Z,9.52
2023-05-03T11:32:44.811Z,8.98
2023-05-03T11:38:48.427Z,8.88
2023-05-03T11:44:51.919Z,8.55
2023-05-03T11:50:57.279Z,8.88
2023-05-03T11:57:01.950Z,8.27
2023-05-03T12:03:05.797Z,10.75
2023-05-03T12:09:18.001Z,8.25
2023-05-03T12:15:33.758Z,8.88
2023-05-03T12:21:59.322Z,9.30
2023-05-03T12:28:20.367Z,8.35
2023-05-03T12:40:34.819Z,8.35
2023-05-03T12:46:40.292Z,8.05
2023-05-03T12:52:45.498Z,9.02
2023-05-03T13:05:00.010Z,8.15
2023-05-03T13:11:05.103Z,8.85
2023-05-03T13:17:08.570Z,9.00
2023-05-03T13:23:13.468Z,10.07
2023-05-03T13:29:16.920Z,8.35
2023-05-03T13:35:20.747Z,9.27
2023-05-03T13:41:25.830Z,8.38
2023-05-03T13:47:33.090Z,8.35
2023-05-03T13:53:45.549Z,7.80
2023-05-03T13:59:51.048Z,7.72
2023-05-03T14:05:54.443Z,9.30
2023-05-03T14:11:58.039Z,7.90
2023-05-03T14:18:05.657Z,8.13
2023-05-03T14:24:10.620Z,7.82
2023-05-03T14:30:14.510Z,9.05
2023-05-03T14:36:21.568Z,7.70
2023-05-03T14:42:25.113Z,7.97
2023-05-03T14:48:28.583Z,9.30
2023-05-03T14:54:33.422Z,8.83
2023-05-03T15:00:39.726Z,8.25
2023-05-03T15:06:43.160Z,8.75
2023-05-03T15:12:48.049Z,7.43
2023-05-03T15:18:51.664Z,7.75
2023-05-03T15:24:55.155Z,7.78
2023-05-03T15:30:59.970Z,8.30
2023-05-03T15:37:04.039Z,7.47
2023-05-03T15:43:07.499Z,7.93
2023-05-03T15:49:12.852Z,7.72
2023-05-03T15:55:17.670Z,8.10
2023-05-03T16:01:21.341Z,9.33
2023-05-03T16:07:26.946Z,8.63
2023-05-03T16:13:30.457Z,7.43
2023-05-03T16:19:33.964Z,8.23
2023-05-03T16:25:38.771Z,7.80
2023-05-03T16:31:42.360Z,7.93
2023-05-03T16:37:45.812Z,8.18
2023-05-03T16:43:50.868Z,7.43
2023-05-03T16:49:54.290Z,6.93
2023-05-03T16:55:57.878Z,7.90
2023-05-03T17:02:02.845Z,7.28
2023-05-03T17:08:08.356Z,7.28
2023-05-03T17:14:11.776Z,7.60
2023-05-03T17:20:16.835Z,6.95
2023-05-03T17:26:21.383Z,6.88
2023-05-03T17:32:25.058Z,6.65
2023-05-03T17:38:30.193Z,6.47
2023-05-03T17:44:33.600Z,6.75
2023-05-03T17:50:37.126Z,6.57
2023-05-03T17:56:42.206Z,6.95
2023-05-03T18:02:46.128Z,7.65
2023-05-03T18:08:49.551Z,7.78
2023-05-03T18:14:59.640Z,8.18
2023-05-03T18:21:03.830Z,6.97
2023-05-03T18:27:08.157Z,6.85
2023-05-03T18:33:13.103Z,7.22
2023-05-03T18:39:17.214Z,7.68
2023-05-03T18:45:20.724Z,7.50
2023-05-03T18:51:25.633Z,8.30
2023-05-03T18:57:29.129Z,7.63
2023-05-03T19:03:33.091Z,8.02
2023-05-03T19:09:40.424Z,10.27
2023-05-03T19:15:44.580Z,8.90
2023-05-03T19:21:47.968Z,8.45
2023-05-03T19:27:52.745Z,8.73
2023-05-03T19:33:56.139Z,8.35
2023-05-03T19:39:59.647Z,7.97
2023-05-03T19:46:04.468Z,7.55
2023-05-03T19:52:08.431Z,8.20
2023-05-03T19:58:12.333Z,7.97
2023-05-03T20:04:17.221Z,9.07
2023-05-03T20:10:20.864Z,9.05
2023-05-03T20:16:27.313Z,8.98
2023-05-03T20:22:32.473Z,9.38
2023-05-03T20:28:35.911Z,9.30
2023-05-03T20:34:40.463Z,9.10
2023-05-03T20:40:45.276Z,8.38
2023-05-03T20:46:48.731Z,7.75
2023-05-03T20:52:52.162Z,7.90
2023-05-03T20:58:56.981Z,8.05
2023-05-03T21:05:00.586Z,7.50
2023-05-03T21:11:04.618Z,7.28
2023-05-03T21:17:15.182Z,7.35
2023-05-03T21:23:18.718Z,7.15
2023-05-03T21:29:22.095Z,7.35
2023-05-03T21:35:27.102Z,7.63
2023-05-03T21:41:30.569Z,7.13
2023-05-03T21:47:34.014Z,6.50
2023-05-03T21:53:39.201Z,6.90
2023-05-03T21:59:42.914Z,6.95
2023-05-03T22:05:48.789Z,7.35
2023-05-03T22:11:53.556Z,7.50
2023-05-03T22:17:57.462Z,7.57
2023-05-03T22:24:01.077Z,7.60
2023-05-03T22:30:06.314Z,6.55
2023-05-03T22:36:10.421Z,6.78
2023-05-03T22:42:13.866Z,6.80
2023-05-03T22:48:18.607Z,7.22
2023-05-03T22:54:22.535Z,6.90
2023-05-03T23:00:26.949Z,6.55
2023-05-03T23:06:31.744Z,6.70
2023-05-03T23:12:35.323Z,6.82
2023-05-03T23:18:38.916Z,7.25
2023-05-03T23:24:43.713Z,7.45
2023-05-03T23:30:47.528Z,7.32
2023-05-03T23:36:51.979Z,7.07
2023-05-03T23:42:56.945Z,6.70
2023-05-03T23:49:00.309Z,7.10
2023-05-03T23:55:03.964Z,7.38
